Pittsburg, Iowa
Current Conditions -  °F | °C
As of 4:55 AM on Friday 19 Dec 2014 (Local Time) from KFFL Reporting Station
Overcast Overcast  
Wind Chill: 27°   Ceiling: 5500
Heat Index: 27°   Visibility: 10mi
Dew Point: 23°   Wind: 0mph
Humidity: 86%   Direction: NA
Pressure: 30.28"   Gusts: NA
Location:  40.7687°N, 92.0788°W
Report Text: KFFL 191055Z AUTO 00000KT 10SM FEW027 OVC055 M03/M05 A3028 RMK AO2
Loading
Personal Weather Stations






























Interactive Weather Map New forecast layout! Learn more

10-Day Weather Forecast

Advertisements
Track Severe Weather on mobile